CSV2 weather

Public forecast

Using degrees Celsius for public forecast. Weather courtesy of forecast.io.

Closest aviation weather report (METAR) to Ste-Agathe (AIM) Heliport

Closest report is Montreal International (Mirabel) Airport, 28.0 nm (51.9 km) SSE. Retrieved 2020/08/15 17:00 UTC (3 minutes ago):

CYMX 151700Z 05008KT 010V090 35SM FEW035 25/18 A3008 RMK CU1 CU TR SLP187 DENSITY ALT 1400FT

Closest aviation forecast (TAF) to Ste-Agathe (AIM) Heliport

Closest forecast is Montreal International (Mirabel) Airport, 28.0 nm (51.9 km) SSE. Retrieved 2020/08/15 12:42 UTC (4 hours ago):

TAF CYMX 151138Z 1512/1612 06006KT P6SM FEW080 FM151600 08008KT P6SM FEW050 BECMG 1522/1524 07005KT FM160800 04005KT P6SM BKN060 RMK NXT FCST BY 151800Z